Time;durP1;ratioP1;P1;durP2;ratioP2;P2;SDS_P1;SDS_P2;PMS_P1;PMS_P2;Temp;Humidity;BMP_temperature;BMP_pressure;BME280_temperature;BME280_humidity;BME280_pressure;Samples;Min_cycle;Max_cycle;Signal;HPM_P1;HPM_P2
2023/10/13 00:02:07;;;;;;;8.40;8.20;;;15.80;99.90;;;;;;5131226;27;20224;-79
2023/10/13 00:04:36;;;;;;;8.18;7.97;;;15.80;99.90;;;;;;5145516;27;20232;-80
2023/10/13 00:07:08;;;;;;;8.30;8.10;;;15.80;99.90;;;;;;5130442;27;20244;-78
2023/10/13 00:09:37;;;;;;;8.20;8.00;;;15.80;99.90;;;;;;5128669;27;20294;-79
2023/10/13 00:12:13;;;;;;;8.23;8.02;;;15.80;99.90;;;;;;5135732;27;20314;-79
2023/10/13 00:14:45;;;;;;;8.30;8.10;;;15.80;99.90;;;;;;5130418;27;20228;-79
2023/10/13 00:17:19;;;;;;;8.40;8.20;;;15.70;99.90;;;;;;5146261;27;20249;-79
2023/10/13 00:19:51;;;;;;;8.60;8.40;;;15.70;99.90;;;;;;5146319;27;20289;-79
2023/10/13 00:22:19;;;;;;;8.50;8.30;;;15.60;99.90;;;;;;5146292;27;20228;-79
2023/10/13 00:24:47;;;;;;;8.45;8.25;;;15.60;99.90;;;;;;5146195;27;20227;-80
2023/10/13 00:30:17;;;;;;;8.50;8.30;;;15.60;99.90;;;;;;5146182;27;20224;-80
2023/10/13 00:32:44;;;;;;;8.43;8.23;;;15.60;99.90;;;;;;5146849;27;20297;-80
2023/10/13 00:35:15;;;;;;;8.57;8.38;;;15.60;99.90;;;;;;5146498;27;20263;-80
2023/10/13 00:37:44;;;;;;;8.50;8.30;;;15.60;99.90;;;;;;5145937;27;20287;-79
2023/10/13 00:40:41;;;;;;;8.50;8.30;;;15.50;99.90;;;;;;5145434;27;20228;-79
2023/10/13 00:46:12;;;;;;;8.40;8.20;;;15.50;99.90;;;;;;5159464;27;20609;-78
2023/10/13 00:48:51;;;;;;;8.35;8.15;;;15.50;99.90;;;;;;5139393;27;20238;-78
2023/10/13 00:51:22;;;;;;;8.20;8.00;;;15.50;99.90;;;;;;5140413;27;20228;-78
2023/10/13 00:53:50;;;;;;;8.25;8.05;;;15.50;99.90;;;;;;5140856;27;20227;-79
2023/10/13 00:56:26;;;;;;;8.25;8.05;;;15.50;99.90;;;;;;5147299;27;20319;-78
2023/10/13 00:58:57;;;;;;;8.20;8.00;;;15.50;99.90;;;;;;5146994;27;20320;-78
2023/10/13 01:01:29;;;;;;;8.30;8.10;;;15.50;99.90;;;;;;5150410;27;20296;-80
2023/10/13 01:04:04;;;;;;;8.25;8.05;;;15.50;99.90;;;;;;5150137;27;20236;-78
2023/10/13 01:06:31;;;;;;;8.45;8.25;;;15.40;99.90;;;;;;5141796;27;20259;-78
2023/10/13 01:09:10;;;;;;;8.40;8.20;;;15.40;99.90;;;;;;5141649;27;20236;-78
2023/10/13 01:11:37;;;;;;;8.40;8.20;;;15.40;99.90;;;;;;5140626;27;20224;-78
2023/10/13 01:14:06;;;;;;;8.80;8.50;;;15.40;99.90;;;;;;5140833;27;20220;-79
2023/10/13 01:16:33;;;;;;;8.48;8.27;;;15.40;99.90;;;;;;5142367;27;20232;-79
2023/10/13 01:19:04;;;;;;;8.38;8.18;;;15.40;99.90;;;;;;5142256;27;20232;-79
2023/10/13 01:21:33;;;;;;;8.43;8.23;;;15.40;99.90;;;;;;5140686;27;20236;-79
2023/10/13 01:24:07;;;;;;;8.52;8.32;;;15.40;99.90;;;;;;5139637;27;20216;-79
2023/10/13 01:26:38;;;;;;;8.25;8.05;;;15.50;99.90;;;;;;5139569;27;20292;-78
2023/10/13 01:29:14;;;;;;;8.40;8.20;;;15.50;99.90;;;;;;5139398;27;20342;-79
2023/10/13 01:31:45;;;;;;;8.05;7.85;;;15.50;99.90;;;;;;5139794;27;20232;-79
2023/10/13 01:34:19;;;;;;;8.30;8.10;;;15.50;99.90;;;;;;5138946;27;20224;-79
2023/10/13 01:36:45;;;;;;;8.38;8.18;;;15.50;99.90;;;;;;5140707;27;20232;-79
2023/10/13 01:39:16;;;;;;;8.38;8.18;;;15.50;99.90;;;;;;5143331;27;20243;-80
2023/10/13 01:41:42;;;;;;;8.10;7.90;;;15.50;99.90;;;;;;5139657;27;20235;-78
2023/10/13 01:44:12;;;;;;;8.30;8.10;;;15.50;99.90;;;;;;5138289;27;20228;-79
2023/10/13 01:46:38;;;;;;;8.00;7.80;;;15.50;99.90;;;;;;5138968;27;20224;-78
2023/10/13 01:49:07;;;;;;;8.40;8.20;;;15.60;99.90;;;;;;5138394;27;20232;-79
2023/10/13 01:51:33;;;;;;;8.07;7.88;;;15.60;99.90;;;;;;5138716;27;20259;-80
2023/10/13 01:54:02;;;;;;;8.30;8.10;;;15.60;99.90;;;;;;5139020;27;20320;-79
2023/10/13 01:56:31;;;;;;;8.27;8.07;;;15.50;99.90;;;;;;5129823;27;20267;-78
2023/10/13 01:58:58;;;;;;;8.48;8.27;;;15.50;99.90;;;;;;5124766;27;20319;-78
2023/10/13 02:01:26;;;;;;;8.20;8.00;;;15.40;99.90;;;;;;5124958;27;20332;-78
2023/10/13 02:04:02;;;;;;;8.23;8.02;;;15.40;99.90;;;;;;5125247;27;20268;-79
2023/10/13 02:06:32;;;;;;;8.30;8.10;;;15.40;99.90;;;;;;5124539;27;20228;-78
2023/10/13 02:09:10;;;;;;;8.23;8.02;;;15.40;99.90;;;;;;5124322;27;20240;-78
2023/10/13 02:11:38;;;;;;;8.25;8.05;;;15.40;99.90;;;;;;5125001;27;20268;-78
2023/10/13 02:14:05;;;;;;;8.15;7.95;;;15.40;99.90;;;;;;5125270;27;20216;-79
2023/10/13 02:16:31;;;;;;;8.00;7.80;;;15.40;99.90;;;;;;5125947;27;20225;-79
2023/10/13 02:19:04;;;;;;;8.27;8.07;;;15.40;99.90;;;;;;5125107;27;20237;-78
2023/10/13 02:21:38;;;;;;;8.20;8.00;;;15.40;99.90;;;;;;5125410;27;20225;-79
2023/10/13 02:24:12;;;;;;;8.25;8.05;;;15.40;99.90;;;;;;5124671;27;20212;-79
2023/10/13 02:26:40;;;;;;;8.30;8.10;;;15.40;99.90;;;;;;5125069;27;20223;-78
2023/10/13 02:29:12;;;;;;;8.20;8.00;;;15.40;99.90;;;;;;5124241;27;20243;-81
2023/10/13 02:31:42;;;;;;;8.05;7.85;;;15.40;99.90;;;;;;5124633;27;20225;-78
2023/10/13 02:34:09;;;;;;;8.10;7.90;;;15.30;99.90;;;;;;5124182;27;20228;-81
2023/10/13 02:36:36;;;;;;;8.00;7.80;;;15.30;99.90;;;;;;5124679;27;20236;-79
2023/10/13 02:39:08;;;;;;;7.75;7.55;;;15.30;99.90;;;;;;5125121;27;20237;-79
2023/10/13 02:41:37;;;;;;;7.80;7.60;;;15.30;99.90;;;;;;5125005;27;20229;-80
2023/10/13 02:44:07;;;;;;;7.70;7.50;;;15.30;99.90;;;;;;5125535;27;20225;-79
2023/10/13 02:46:36;;;;;;;7.80;7.60;;;15.30;99.90;;;;;;5125643;27;20263;-80
2023/10/13 02:49:10;;;;;;;7.70;7.50;;;15.40;99.90;;;;;;5125015;27;20232;-80
2023/10/13 02:51:36;;;;;;;7.63;7.43;;;15.40;99.90;;;;;;5124791;27;20286;-80
2023/10/13 02:54:10;;;;;;;7.90;7.70;;;15.40;99.90;;;;;;5125502;27;20225;-80
2023/10/13 02:56:36;;;;;;;7.70;7.50;;;15.40;99.90;;;;;;5125708;27;20233;-81
2023/10/13 02:59:05;;;;;;;7.80;7.60;;;15.40;99.90;;;;;;5128950;27;20244;-79
2023/10/13 03:01:34;;;;;;;7.50;7.30;;;15.30;99.90;;;;;;5134731;27;20228;-79
2023/10/13 03:04:02;;;;;;;7.90;7.70;;;15.30;99.90;;;;;;5126600;27;20227;-79
2023/10/13 03:06:32;;;;;;;7.40;7.20;;;15.30;99.90;;;;;;5127095;27;20236;-80
2023/10/13 03:09:14;;;;;;;7.47;7.28;;;15.30;99.90;;;;;;5123525;27;20263;-80
2023/10/13 03:11:47;;;;;;;7.55;7.35;;;15.30;99.90;;;;;;5125994;27;20295;-80
2023/10/13 03:14:26;;;;;;;7.50;7.30;;;15.30;99.90;;;;;;5124448;27;20229;-80
2023/10/13 03:16:53;;;;;;;7.07;6.88;;;15.30;99.90;;;;;;5124495;27;20244;-80
2023/10/13 03:19:20;;;;;;;7.00;6.80;;;15.30;99.90;;;;;;5124961;27;20342;-79
2023/10/13 03:21:54;;;;;;;7.20;7.00;;;15.30;99.90;;;;;;5125079;27;20221;-82
2023/10/13 03:24:33;;;;;;;7.15;6.95;;;15.20;99.90;;;;;;5124983;27;20213;-80
2023/10/13 03:27:07;;;;;;;7.50;7.30;;;15.30;99.90;;;;;;5125136;27;20286;-81
2023/10/13 03:29:38;;;;;;;7.70;7.50;;;15.30;99.90;;;;;;5124436;27;20232;-81
2023/10/13 03:32:11;;;;;;;7.90;7.70;;;15.30;99.90;;;;;;5124884;27;20235;-80
2023/10/13 03:34:49;;;;;;;7.80;7.60;;;15.20;99.90;;;;;;5124868;27;20217;-81
2023/10/13 03:37:19;;;;;;;7.93;7.72;;;15.20;99.90;;;;;;5125045;27;20320;-80
2023/10/13 03:39:46;;;;;;;7.90;7.70;;;15.20;99.90;;;;;;5124051;27;20229;-80
2023/10/13 03:42:18;;;;;;;7.93;7.72;;;15.10;99.90;;;;;;5124809;27;20312;-81
2023/10/13 03:44:47;;;;;;;7.85;7.65;;;15.10;99.90;;;;;;5123874;27;20251;-80
2023/10/13 03:47:26;;;;;;;7.97;7.78;;;15.10;99.90;;;;;;5125140;27;20228;-79
2023/10/13 03:50:14;;;;;;;7.95;7.75;;;15.10;99.90;;;;;;5124374;27;20263;-80
2023/10/13 03:52:42;;;;;;;7.80;7.60;;;15.00;99.90;;;;;;5123979;27;20220;-79
2023/10/13 03:55:17;;;;;;;7.90;7.70;;;15.00;99.90;;;;;;5124197;27;20221;-80
2023/10/13 03:57:50;;;;;;;7.72;7.53;;;15.00;99.90;;;;;;5124002;27;20235;-80
2023/10/13 04:00:24;;;;;;;7.95;7.75;;;15.00;99.90;;;;;;5124519;27;20224;-80
2023/10/13 04:03:05;;;;;;;7.85;7.65;;;14.90;99.90;;;;;;5116926;27;20251;-80
2023/10/13 04:05:40;;;;;;;7.80;7.60;;;14.90;99.90;;;;;;5115807;27;20233;-80
2023/10/13 04:16:50;;;;;;;7.50;7.30;;;14.80;99.90;;;;;;5125342;27;20216;-81
2023/10/13 04:19:22;;;;;;;7.35;7.15;;;14.70;99.90;;;;;;5132635;27;20244;-80
2023/10/13 04:21:58;;;;;;;7.35;7.15;;;14.80;99.90;;;;;;5133059;27;20244;-80
2023/10/13 04:30:13;;;;;;;7.30;7.10;;;14.70;99.90;;;;;;5117097;27;20225;-79
2023/10/13 04:32:52;;;;;;;7.40;7.20;;;14.80;99.90;;;;;;5123599;27;20224;-78
2023/10/13 04:35:24;;;;;;;7.30;7.10;;;14.80;99.90;;;;;;5123033;27;20235;-79
2023/10/13 04:37:52;;;;;;;7.15;6.95;;;14.70;99.90;;;;;;5123069;27;20255;-79
2023/10/13 04:40:25;;;;;;;7.30;7.10;;;14.70;99.90;;;;;;5123234;27;20232;-78
2023/10/13 04:42:57;;;;;;;7.03;6.82;;;14.70;99.90;;;;;;5122648;27;20259;-79
2023/10/13 04:48:27;;;;;;;6.65;6.45;;;14.70;99.90;;;;;;5116135;27;20319;-79
2023/10/13 04:59:35;;;;;;;6.55;6.35;;;14.70;99.90;;;;;;5125923;28;20209;-79
2023/10/13 05:49:26;;;;;;;6.90;6.70;;;15.10;99.90;;;;;;5131751;28;20228;-79
2023/10/13 05:51:58;;;;;;;6.95;6.75;;;15.10;99.90;;;;;;5130579;27;20220;-79
2023/10/13 06:30:17;;;;;;;7.18;6.97;;;15.10;99.90;;;;;;5130798;28;20231;-79
2023/10/13 06:32:46;;;;;;;7.28;7.07;;;15.20;99.90;;;;;;5132293;27;20229;-79
2023/10/13 06:35:22;;;;;;;7.60;7.40;;;15.10;99.90;;;;;;5133683;27;20221;-79
2023/10/13 06:37:50;;;;;;;7.65;7.45;;;15.10;99.90;;;;;;5112677;28;20240;-79
2023/10/13 06:40:25;;;;;;;8.07;7.88;;;15.10;99.90;;;;;;5113962;28;20229;-79
2023/10/13 06:42:55;;;;;;;7.95;7.75;;;15.20;99.90;;;;;;5111671;28;20225;-78
2023/10/13 06:45:22;;;;;;;7.97;7.78;;;15.20;99.90;;;;;;5111336;28;20237;-78
2023/10/13 06:47:53;;;;;;;7.90;7.70;;;15.20;99.90;;;;;;5110834;28;20260;-79
2023/10/13 06:50:24;;;;;;;8.10;7.90;;;15.30;99.90;;;;;;5111752;28;21060;-79
2023/10/13 06:52:54;;;;;;;7.90;7.70;;;15.30;99.90;;;;;;5109082;28;20237;-79
2023/10/13 06:55:27;;;;;;;7.90;7.70;;;15.40;99.90;;;;;;5110775;28;20248;-79
2023/10/13 06:57:59;;;;;;;7.95;7.75;;;15.40;99.90;;;;;;5110449;28;20221;-79
2023/10/13 07:00:29;;;;;;;7.93;7.72;;;15.40;99.90;;;;;;5110014;28;20245;-79
2023/10/13 07:03:05;;;;;;;7.70;7.50;;;15.40;99.90;;;;;;5110219;28;20249;-78
2023/10/13 07:05:37;;;;;;;7.93;7.72;;;15.50;99.90;;;;;;5126413;28;20231;-79
2023/10/13 07:08:06;;;;;;;8.38;8.18;;;15.50;99.90;;;;;;5130436;27;20229;-79
2023/10/13 07:10:44;;;;;;;8.35;8.15;;;15.60;99.90;;;;;;5131948;27;20243;-78
2023/10/13 07:13:13;;;;;;;8.55;8.35;;;15.60;99.90;;;;;;5132841;27;20246;-79
2023/10/13 07:15:45;;;;;;;8.43;8.23;;;15.70;99.90;;;;;;5133303;27;20255;-78
2023/10/13 07:18:14;;;;;;;8.80;8.60;;;15.70;99.90;;;;;;5132305;27;20221;-79
2023/10/13 07:20:45;;;;;;;9.00;8.70;;;15.80;99.90;;;;;;5129995;27;20329;-79
2023/10/13 07:23:17;;;;;;;8.75;8.55;;;15.90;99.90;;;;;;5129547;27;20245;-79
2023/10/13 07:25:53;;;;;;;9.48;9.18;;;16.00;99.90;;;;;;5128128;27;20235;-79
2023/10/13 07:28:22;;;;;;;9.88;9.57;;;16.00;99.90;;;;;;5127192;27;20237;-78
2023/10/13 07:31:11;;;;;;;9.38;9.07;;;16.10;99.90;;;;;;5127737;27;20243;-79
2023/10/13 07:33:38;;;;;;;10.07;9.77;;;16.20;99.90;;;;;;5127470;28;20237;-78
2023/10/13 07:36:15;;;;;;;9.70;9.40;;;16.40;99.90;;;;;;5129711;27;20221;-79
2023/10/13 07:38:43;;;;;;;10.15;9.85;;;16.40;99.90;;;;;;5128887;27;20317;-79
2023/10/13 07:41:15;;;;;;;10.10;9.80;;;16.50;99.90;;;;;;5128464;27;20236;-79
2023/10/13 07:43:45;;;;;;;10.30;10.00;;;16.60;99.90;;;;;;5128122;27;20233;-78
2023/10/13 07:46:13;;;;;;;10.20;9.90;;;16.70;99.90;;;;;;5128201;27;20231;-79
2023/10/13 07:48:45;;;;;;;10.48;10.18;;;16.80;99.90;;;;;;5128917;27;20228;-79
2023/10/13 07:51:15;;;;;;;10.50;10.20;;;16.90;99.90;;;;;;5127779;27;20233;-79
2023/10/13 07:53:43;;;;;;;10.52;10.23;;;16.90;99.90;;;;;;5127314;27;20237;-78
2023/10/13 07:56:11;;;;;;;10.45;10.15;;;17.00;99.90;;;;;;5128740;27;20255;-78
2023/10/13 07:58:52;;;;;;;10.38;10.07;;;17.10;99.90;;;;;;5127681;27;20228;-78
2023/10/13 08:01:21;;;;;;;10.07;9.77;;;17.20;99.90;;;;;;5128028;27;20243;-78
2023/10/13 08:03:57;;;;;;;10.40;10.10;;;17.30;99.90;;;;;;5127720;27;20232;-78
2023/10/13 08:06:28;;;;;;;10.60;10.30;;;17.40;99.90;;;;;;5129383;27;20228;-79
2023/10/13 08:09:06;;;;;;;10.50;10.20;;;17.50;99.90;;;;;;5128470;27;20232;-78
2023/10/13 08:11:35;;;;;;;10.30;10.00;;;17.60;99.90;;;;;;5127435;27;20233;-78
2023/10/13 08:14:12;;;;;;;10.18;9.88;;;17.80;99.90;;;;;;5126589;27;20233;-78
2023/10/13 08:16:52;;;;;;;10.15;9.85;;;18.00;99.90;;;;;;5128891;27;20262;-79
2023/10/13 08:19:26;;;;;;;10.00;9.70;;;18.00;99.90;;;;;;5128688;28;20282;-80
2023/10/13 08:21:57;;;;;;;9.85;9.55;;;18.10;99.90;;;;;;5130165;27;20254;-79
2023/10/13 08:24:55;;;;;;;10.10;9.80;;;18.10;99.90;;;;;;5129318;27;20251;-79
2023/10/13 08:27:34;;;;;;;10.10;9.80;;;18.20;99.90;;;;;;5128241;28;20236;-81
2023/10/13 08:32:56;;;;;;;9.80;9.50;;;18.10;99.90;;;;;;5131257;28;20227;-79
2023/10/13 08:35:34;;;;;;;9.60;9.30;;;18.20;99.90;;;;;;5129351;27;20237;-80
2023/10/13 08:38:16;;;;;;;9.60;9.30;;;18.30;99.90;;;;;;5129316;27;20237;-85
2023/10/13 08:43:45;;;;;;;10.07;9.77;;;18.70;99.90;;;;;;5128713;28;20281;-80
2023/10/13 08:46:27;;;;;;;9.75;9.45;;;18.90;99.90;;;;;;5128500;27;20232;-80
2023/10/13 08:49:08;;;;;;;9.75;9.45;;;19.20;99.90;;;;;;5129328;27;20216;-81
2023/10/13 08:51:49;;;;;;;9.77;9.48;;;19.50;99.90;;;;;;5128774;28;20224;-81
2023/10/13 08:54:33;;;;;;;10.23;9.93;;;19.70;99.90;;;;;;5130405;27;20260;-81
2023/10/13 08:57:06;;;;;;;10.23;9.93;;;19.90;99.90;;;;;;5130581;27;20296;-80
2023/10/13 08:59:52;;;;;;;10.20;9.90;;;19.90;99.90;;;;;;5130234;27;20236;-80
2023/10/13 09:02:59;;;;;;;10.60;10.30;;;19.90;99.90;;;;;;5129104;27;20323;-80
2023/10/13 09:10:44;;;;;;;10.55;10.25;;;20.40;99.90;;;;;;5130925;27;20230;-83
2023/10/13 09:13:18;;;;;;;10.52;10.23;;;20.70;99.90;;;;;;5127721;27;20262;-82
2023/10/13 09:16:00;;;;;;;10.25;9.95;;;20.80;99.90;;;;;;5127545;27;20231;-82
2023/10/13 09:18:42;;;;;;;10.40;10.10;;;21.00;99.90;;;;;;5127023;27;20236;-82
2023/10/13 09:24:16;;;;;;;10.57;10.27;;;21.00;99.90;;;;;;5127305;28;20221;-83
2023/10/13 09:26:41;;;;;;;10.60;10.30;;;21.10;99.90;;;;;;5129604;28;20233;-82
2023/10/13 09:29:18;;;;;;;10.45;10.15;;;21.40;99.90;;;;;;5127532;27;20229;-81
2023/10/13 09:31:48;;;;;;;10.40;10.10;;;21.70;99.90;;;;;;5127431;27;20231;-81
2023/10/13 09:34:29;;;;;;;10.57;10.27;;;22.00;99.90;;;;;;5136110;28;20217;-81
2023/10/13 09:37:03;;;;;;;10.48;10.18;;;22.30;99.90;;;;;;5127709;27;20228;-81
2023/10/13 09:39:44;;;;;;;10.45;10.15;;;22.40;99.90;;;;;;5127896;27;20274;-81
2023/10/13 09:42:16;;;;;;;10.57;10.27;;;22.60;99.90;;;;;;5126309;27;20250;-81
2023/10/13 09:44:49;;;;;;;10.68;10.38;;;22.60;99.90;;;;;;5132633;27;20306;-80
2023/10/13 09:47:29;;;;;;;10.40;10.10;;;22.90;99.90;;;;;;5128652;27;20297;-81
2023/10/13 09:50:04;;;;;;;10.27;9.98;;;23.20;99.90;;;;;;5128939;27;20225;-81
2023/10/13 09:52:37;;;;;;;10.00;9.70;;;23.60;99.90;;;;;;5127004;27;20232;-81
2023/10/13 09:55:13;;;;;;;10.13;9.82;;;23.80;99.90;;;;;;5126129;27;20217;-80
2023/10/13 09:57:48;;;;;;;10.20;9.90;;;23.90;99.90;;;;;;5125228;27;20258;-81
2023/10/13 10:03:19;;;;;;;10.15;9.85;;;24.00;99.90;;;;;;5125492;28;20337;-81
2023/10/13 10:06:03;;;;;;;9.80;9.50;;;24.00;99.90;;;;;;5125499;27;20239;-81
2023/10/13 10:08:38;;;;;;;10.10;9.80;;;23.80;99.90;;;;;;5125589;27;20233;-80
2023/10/13 10:12:01;;;;;;;10.10;9.80;;;23.70;99.90;;;;;;5125751;27;20215;-82
2023/10/13 10:14:45;;;;;;;9.75;9.45;;;23.50;99.90;;;;;;5124969;27;20286;-81
2023/10/13 10:17:13;;;;;;;10.10;9.80;;;23.30;99.90;;;;;;5124565;27;20239;-80
2023/10/13 10:19:53;;;;;;;10.25;9.95;;;23.30;99.90;;;;;;5125157;27;20315;-81
2023/10/13 10:22:31;;;;;;;10.10;9.80;;;23.20;99.90;;;;;;5125276;27;20225;-80
2023/10/13 10:25:02;;;;;;;9.90;9.60;;;23.30;99.90;;;;;;5126286;28;20279;-78
2023/10/13 10:34:43;;;;;;;10.20;9.90;;;24.00;99.90;;;;;;5066519;28;20235;-84
2023/10/13 10:37:20;;;;;;;10.02;9.73;;;24.60;99.90;;;;;;5060662;28;20230;-86
2023/10/13 10:43:00;;;;;;;10.32;10.02;;;25.50;99.90;;;;;;5059080;28;20211;-87
2023/10/13 11:00:25;;;;;;;10.43;10.13;;;27.10;99.90;;;;;;5050665;28;20238;-90
2023/10/13 11:06:42;;;;;;;10.30;10.00;;;27.60;99.90;;;;;;5047685;28;20219;-90
2023/10/13 12:52:31;;;;;;;10.25;9.95;;;28.30;99.90;;;;;;5046618;28;20253;-88
2023/10/13 12:55:53;;;;;;;10.40;10.10;;;28.20;99.90;;;;;;5049715;28;20262;-83
2023/10/13 12:58:27;;;;;;;10.30;10.00;;;28.20;99.90;;;;;;5035786;28;20297;-84
2023/10/13 13:03:45;;;;;;;10.40;10.10;;;27.90;99.90;;;;;;5043254;28;20318;-85
2023/10/13 13:09:00;;;;;;;10.70;10.40;;;28.10;99.90;;;;;;5044591;28;20223;-84
2023/10/13 13:11:30;;;;;;;10.68;10.38;;;28.40;99.90;;;;;;5044396;28;20238;-83
2023/10/13 13:14:09;;;;;;;10.48;10.18;;;28.50;99.90;;;;;;5045170;28;20254;-83
2023/10/13 13:17:04;;;;;;;10.50;10.20;;;28.50;99.90;;;;;;5045533;28;20219;-86
2023/10/13 13:19:35;;;;;;;10.45;10.15;;;28.30;99.90;;;;;;5047325;28;20231;-82
2023/10/13 13:22:04;;;;;;;10.65;10.35;;;28.40;99.90;;;;;;5053971;28;20231;-84
2023/10/13 13:24:33;;;;;;;10.57;10.27;;;28.70;99.90;;;;;;5043701;28;20235;-85
2023/10/13 13:27:05;;;;;;;10.52;10.23;;;29.10;99.90;;;;;;5042576;28;20255;-83
2023/10/13 13:35:18;;;;;;;11.10;10.80;;;29.80;99.90;;;;;;5183023;27;20590;-83
2023/10/13 13:37:48;;;;;;;11.05;10.75;;;29.80;99.90;;;;;;5150184;27;20232;-85
2023/10/13 13:40:18;;;;;;;11.07;10.77;;;29.80;99.90;;;;;;5142376;27;20220;-84
2023/10/13 13:45:31;;;;;;;11.10;10.80;;;30.00;99.90;;;;;;5142901;27;20224;-84
2023/10/13 13:48:07;;;;;;;11.10;10.80;;;30.00;99.90;;;;;;5142857;27;20224;-84
2023/10/13 13:53:31;;;;;;;10.80;10.50;;;30.20;99.90;;;;;;5146243;27;20240;-84
2023/10/13 13:56:05;;;;;;;11.00;10.70;;;30.20;99.90;;;;;;5146211;27;20231;-85
2023/10/13 13:58:33;;;;;;;10.90;10.60;;;30.20;99.90;;;;;;5145261;27;20295;-83
2023/10/13 14:03:50;;;;;;;10.80;10.50;;;30.30;99.90;;;;;;5144524;27;20219;-83
2023/10/13 14:09:14;;;;;;;10.73;10.43;;;30.00;99.90;;;;;;5148633;27;20259;-84
2023/10/13 14:17:28;;;;;;;10.40;10.10;;;29.90;99.90;;;;;;5145169;27;20228;-82
2023/10/13 14:19:58;;;;;;;10.45;10.15;;;29.90;99.90;;;;;;5142203;27;20248;-85
2023/10/13 14:25:14;;;;;;;10.68;10.38;;;30.00;99.90;;;;;;5143151;27;20200;-86
2023/10/13 14:27:43;;;;;;;10.52;10.23;;;30.00;99.90;;;;;;5143467;27;20242;-84
2023/10/13 14:30:59;;;;;;;10.60;10.30;;;30.00;99.90;;;;;;5141994;27;20236;-88
2023/10/13 14:34:21;;;;;;;10.60;10.30;;;30.10;99.90;;;;;;5141137;27;20258;-86
2023/10/13 14:36:49;;;;;;;10.60;10.30;;;30.00;99.90;;;;;;5144819;27;20235;-88
2023/10/13 14:39:48;;;;;;;10.40;10.10;;;29.60;99.90;;;;;;5149901;27;20224;-87
2023/10/13 16:31:28;;;;;;;9.70;9.40;;;24.30;99.90;;;;;;5080372;28;20261;-81
2023/10/13 16:33:58;;;;;;;9.50;9.20;;;24.10;99.90;;;;;;5083121;28;20229;-80
2023/10/13 16:36:25;;;;;;;9.65;9.35;;;24.00;99.90;;;;;;5084020;28;20261;-80
2023/10/13 16:38:57;;;;;;;9.60;9.30;;;23.90;99.90;;;;;;5084429;28;20244;-81
2023/10/13 16:41:24;;;;;;;9.60;9.30;;;23.80;99.90;;;;;;5083763;28;20236;-81
2023/10/13 16:43:51;;;;;;;9.40;9.10;;;23.60;99.90;;;;;;5082810;28;20230;-81
2023/10/13 16:46:19;;;;;;;9.55;9.25;;;23.50;99.90;;;;;;5086190;28;20259;-80
2023/10/13 16:48:50;;;;;;;9.23;8.93;;;23.40;99.90;;;;;;5084282;28;20336;-82
2023/10/13 16:51:29;;;;;;;9.40;9.10;;;23.40;99.90;;;;;;5083710;28;20284;-80
2023/10/13 16:53:58;;;;;;;9.18;8.88;;;23.30;99.90;;;;;;5064573;28;20218;-80
2023/10/13 16:56:27;;;;;;;8.90;8.70;;;23.20;99.90;;;;;;5083164;28;20230;-81
2023/10/13 16:58:56;;;;;;;8.90;8.70;;;23.10;99.90;;;;;;5083998;28;20321;-81
2023/10/13 17:01:26;;;;;;;9.10;8.80;;;23.00;99.90;;;;;;5082975;28;20297;-79
2023/10/13 17:03:57;;;;;;;9.15;8.85;;;22.90;99.90;;;;;;5082934;28;20236;-80
2023/10/13 17:06:25;;;;;;;9.13;8.85;;;22.80;99.90;;;;;;5083402;28;20250;-81
2023/10/13 17:09:04;;;;;;;9.30;9.00;;;22.70;99.90;;;;;;5082279;28;20261;-80
2023/10/13 17:11:32;;;;;;;9.40;9.10;;;22.60;99.90;;;;;;5083860;28;20233;-80
2023/10/13 17:14:05;;;;;;;9.20;8.90;;;22.50;99.90;;;;;;5083133;28;20329;-81
2023/10/13 17:16:32;;;;;;;8.90;8.70;;;22.40;99.90;;;;;;5084217;28;20237;-80
2023/10/13 17:19:03;;;;;;;8.95;8.73;;;22.40;99.90;;;;;;5083999;28;20238;-81
2023/10/13 17:21:31;;;;;;;8.95;8.75;;;22.30;99.90;;;;;;5083940;28;20317;-81
2023/10/13 17:24:01;;;;;;;8.82;8.63;;;22.20;99.90;;;;;;5084610;28;20228;-80
2023/10/13 17:26:30;;;;;;;8.90;8.70;;;22.20;99.90;;;;;;5085260;28;20226;-81
2023/10/13 17:28:58;;;;;;;8.88;8.68;;;22.10;99.90;;;;;;5084235;28;20249;-80
2023/10/13 17:31:28;;;;;;;8.90;8.70;;;22.00;99.90;;;;;;5084793;28;20226;-81
2023/10/13 17:33:58;;;;;;;8.80;8.60;;;21.90;99.90;;;;;;5084571;28;20242;-81
2023/10/13 17:36:30;;;;;;;8.80;8.60;;;21.90;99.90;;;;;;5084545;28;20226;-81
2023/10/13 17:39:00;;;;;;;9.30;9.00;;;21.80;99.90;;;;;;5084512;28;20257;-80
2023/10/13 17:41:32;;;;;;;8.80;8.60;;;21.80;99.90;;;;;;5084942;28;20230;-81
2023/10/13 17:44:02;;;;;;;9.40;9.10;;;21.70;99.90;;;;;;5083714;28;20226;-80
2023/10/13 17:46:31;;;;;;;9.10;8.80;;;21.70;99.90;;;;;;5084429;28;20384;-82
2023/10/13 17:48:59;;;;;;;9.20;8.90;;;21.60;99.90;;;;;;5084776;28;20250;-81
2023/10/13 17:54:08;;;;;;;9.20;8.90;;;21.40;99.90;;;;;;5083424;28;20238;-81
2023/10/13 17:56:36;;;;;;;9.10;8.80;;;21.40;99.90;;;;;;5083073;28;20236;-81
2023/10/13 17:59:04;;;;;;;9.20;8.90;;;21.30;99.90;;;;;;5083062;28;20238;-81
2023/10/13 18:01:32;;;;;;;9.30;9.00;;;21.20;99.90;;;;;;5082592;28;20226;-81
2023/10/13 18:04:04;;;;;;;9.20;8.90;;;21.10;99.90;;;;;;5082349;28;20230;-81
2023/10/13 18:06:40;;;;;;;9.50;9.20;;;21.10;99.90;;;;;;5083732;28;20230;-81
2023/10/13 18:09:11;;;;;;;9.30;9.00;;;21.00;99.90;;;;;;5083872;28;20332;-81
2023/10/13 18:11:38;;;;;;;9.55;9.25;;;21.00;99.90;;;;;;5083770;28;20214;-80
2023/10/13 18:14:06;;;;;;;9.40;9.10;;;20.90;99.90;;;;;;5083026;28;20249;-80
2023/10/13 18:16:35;;;;;;;9.35;9.05;;;20.80;99.90;;;;;;5082512;28;20240;-81
2023/10/13 18:19:14;;;;;;;9.40;9.10;;;20.80;99.90;;;;;;5082832;28;20238;-81
2023/10/13 18:21:46;;;;;;;9.40;9.10;;;20.70;99.90;;;;;;5086177;28;20226;-81
2023/10/13 18:24:13;;;;;;;9.40;9.10;;;20.70;99.90;;;;;;5086212;28;20222;-82
2023/10/13 18:26:42;;;;;;;9.23;8.93;;;20.60;99.90;;;;;;5086927;28;20295;-81
2023/10/13 18:29:11;;;;;;;9.40;9.10;;;20.60;99.90;;;;;;5086279;28;20238;-81
2023/10/13 18:31:51;;;;;;;9.30;9.00;;;20.60;99.90;;;;;;5087214;28;20230;-82
2023/10/13 18:34:18;;;;;;;9.50;9.20;;;20.50;99.90;;;;;;5086423;28;20237;-80
2023/10/13 18:36:52;;;;;;;9.50;9.20;;;20.50;99.90;;;;;;5089127;28;20314;-81
2023/10/13 18:39:24;;;;;;;9.07;8.80;;;20.40;99.90;;;;;;5088148;28;20341;-81
2023/10/13 18:41:51;;;;;;;9.60;9.30;;;20.30;99.90;;;;;;5087193;28;20230;-81
2023/10/13 18:44:20;;;;;;;9.38;9.07;;;20.30;99.90;;;;;;5086743;28;20245;-82
2023/10/13 18:46:48;;;;;;;10.00;9.70;;;20.30;99.90;;;;;;5086055;28;20260;-81
2023/10/13 18:49:27;;;;;;;9.70;9.40;;;20.20;99.90;;;;;;5088488;28;20302;-81
2023/10/13 18:51:56;;;;;;;9.50;9.20;;;20.20;99.90;;;;;;5090324;28;20232;-81
2023/10/13 18:54:24;;;;;;;10.05;9.75;;;20.20;99.90;;;;;;5081364;28;20378;-80
2023/10/13 18:56:54;;;;;;;9.43;9.13;;;20.10;99.90;;;;;;5084533;28;20222;-81
2023/10/13 18:59:21;;;;;;;9.55;9.25;;;20.10;99.90;;;;;;5083229;28;20736;-79
2023/10/13 19:01:56;;;;;;;9.60;9.30;;;20.10;99.90;;;;;;5083815;28;20234;-80
2023/10/13 19:04:23;;;;;;;9.65;9.35;;;20.10;99.90;;;;;;5083721;28;20222;-80
2023/10/13 19:07:03;;;;;;;9.60;9.30;;;20.00;99.90;;;;;;5083015;28;20317;-81
2023/10/13 19:09:40;;;;;;;9.50;9.20;;;20.00;99.90;;;;;;5082256;28;20322;-80
2023/10/13 19:12:09;;;;;;;9.60;9.30;;;19.90;99.90;;;;;;5081472;28;20237;-80
2023/10/13 19:14:41;;;;;;;9.60;9.30;;;19.80;99.90;;;;;;5081801;28;20296;-81
2023/10/13 19:17:09;;;;;;;9.65;9.35;;;19.70;99.90;;;;;;5081889;28;20284;-81
2023/10/13 19:19:37;;;;;;;9.70;9.40;;;19.60;99.90;;;;;;5082022;28;20234;-79
2023/10/13 19:22:13;;;;;;;9.57;9.27;;;19.60;99.90;;;;;;5081643;28;20245;-80
2023/10/13 19:24:46;;;;;;;9.60;9.30;;;19.50;99.90;;;;;;5082399;28;20222;-82
2023/10/13 19:27:16;;;;;;;9.60;9.30;;;19.50;99.90;;;;;;5081615;28;20252;-82
2023/10/13 19:29:55;;;;;;;9.60;9.30;;;19.40;99.90;;;;;;5081877;28;20238;-80
2023/10/13 19:32:27;;;;;;;9.57;9.27;;;19.40;99.90;;;;;;5081750;28;20233;-81
2023/10/13 19:35:05;;;;;;;9.10;8.80;;;19.30;99.90;;;;;;5082091;28;20242;-81
2023/10/13 19:37:58;;;;;;;9.60;9.30;;;19.30;99.90;;;;;;5081669;28;20275;-82
2023/10/13 19:40:45;;;;;;;9.63;9.32;;;19.30;99.90;;;;;;5082391;28;20226;-80
2023/10/13 19:43:12;;;;;;;9.57;9.27;;;19.20;99.90;;;;;;5080717;28;20226;-80
2023/10/13 19:45:41;;;;;;;9.60;9.30;;;19.10;99.90;;;;;;5080499;28;20240;-79
2023/10/13 19:48:09;;;;;;;9.80;9.50;;;19.10;99.90;;;;;;5080582;28;20256;-79
2023/10/13 19:50:39;;;;;;;9.55;9.25;;;19.00;99.90;;;;;;5080097;28;20257;-80
2023/10/13 19:53:11;;;;;;;9.80;9.50;;;19.00;99.90;;;;;;5080725;28;20230;-79
2023/10/13 19:55:39;;;;;;;9.70;9.40;;;18.90;99.90;;;;;;5081167;28;20233;-80
2023/10/13 19:58:08;;;;;;;9.70;9.40;;;18.90;99.90;;;;;;5081554;28;20241;-80
2023/10/13 20:00:36;;;;;;;9.60;9.30;;;18.90;99.90;;;;;;5081594;28;20237;-79